sensor_id;sensor_type;location;lat;lon;timestamp;pressure;altitude;pressure_sealevel;temperature;humidity
7474;BME280;3778;42.572;23.426;2022-07-23T00:01:19;72031.06;;;-146.70;53.43
7474;BME280;3778;42.572;23.426;2022-07-23T00:03:46;72043.50;;;-146.70;53.74
7474;BME280;3778;42.572;23.426;2022-07-23T00:06:12;72051.78;;;-146.70;53.87
7474;BME280;3778;42.572;23.426;2022-07-23T00:08:39;72053.84;;;-146.70;53.90
7474;BME280;3778;42.572;23.426;2022-07-23T00:11:06;72045.56;;;-146.70;53.45
7474;BME280;3778;42.572;23.426;2022-07-23T00:13:33;72051.78;;;-146.70;53.89
7474;BME280;3778;42.572;23.426;2022-07-23T00:16:00;72058.00;;;-146.70;54.36
7474;BME280;3778;42.572;23.426;2022-07-23T00:18:28;72070.44;;;-146.70;54.93
7474;BME280;3778;42.572;23.426;2022-07-23T00:20:55;72078.72;;;-146.70;54.86
7474;BME280;3778;42.572;23.426;2022-07-23T00:23:21;72089.09;;;-146.70;55.29
7474;BME280;3778;42.572;23.426;2022-07-23T00:25:50;72089.09;;;-146.70;55.22
7474;BME280;3778;42.572;23.426;2022-07-23T00:28:17;72093.22;;;-146.70;55.43
7474;BME280;3778;42.572;23.426;2022-07-23T00:30:44;72076.66;;;-146.70;55.20
7474;BME280;3778;42.572;23.426;2022-07-23T00:33:11;72084.94;;;-146.70;55.46
7474;BME280;3778;42.572;23.426;2022-07-23T00:35:40;72082.88;;;-146.70;55.43
7474;BME280;3778;42.572;23.426;2022-07-23T00:38:09;72087.00;;;-146.70;55.46
7474;BME280;3778;42.572;23.426;2022-07-23T00:40:37;72082.88;;;-146.70;54.98
7474;BME280;3778;42.572;23.426;2022-07-23T00:43:04;72070.44;;;-146.70;54.13
7474;BME280;3778;42.572;23.426;2022-07-23T00:45:31;72064.22;;;-146.70;54.26
7474;BME280;3778;42.572;23.426;2022-07-23T00:47:58;72064.22;;;-146.70;54.40
7474;BME280;3778;42.572;23.426;2022-07-23T00:50:26;72072.50;;;-146.70;54.62
7474;BME280;3778;42.572;23.426;2022-07-23T00:52:54;72072.50;;;-146.70;55.12
7474;BME280;3778;42.572;23.426;2022-07-23T00:55:21;72074.56;;;-146.70;55.45
7474;BME280;3778;42.572;23.426;2022-07-23T00:57:49;72070.44;;;-146.70;55.17
7474;BME280;3778;42.572;23.426;2022-07-23T01:00:16;72070.44;;;-146.70;55.07
7474;BME280;3778;42.572;23.426;2022-07-23T01:02:44;72076.66;;;-146.70;55.66
7474;BME280;3778;42.572;23.426;2022-07-23T01:05:11;72084.94;;;-146.70;55.46
7474;BME280;3778;42.572;23.426;2022-07-23T01:07:38;72089.09;;;-146.70;56.03
7474;BME280;3778;42.572;23.426;2022-07-23T01:10:07;72089.09;;;-146.70;55.61
7474;BME280;3778;42.572;23.426;2022-07-23T01:12:54;72101.53;;;-146.70;55.41
7474;BME280;3778;42.572;23.426;2022-07-23T01:15:22;72097.38;;;-146.70;55.21
7474;BME280;3778;42.572;23.426;2022-07-23T01:17:49;72103.59;;;-146.70;55.68
7474;BME280;3778;42.572;23.426;2022-07-23T01:20:16;72087.00;;;-146.70;54.35
7474;BME280;3778;42.572;23.426;2022-07-23T01:22:44;72082.88;;;-146.70;54.60
7474;BME280;3778;42.572;23.426;2022-07-23T01:25:11;72089.09;;;-146.70;54.98
7474;BME280;3778;42.572;23.426;2022-07-23T01:27:38;72097.38;;;-146.70;55.72
7474;BME280;3778;42.572;23.426;2022-07-23T01:30:06;72105.66;;;-146.70;56.29
7474;BME280;3778;42.572;23.426;2022-07-23T01:32:33;72107.75;;;-146.70;56.93
7474;BME280;3778;42.572;23.426;2022-07-23T01:35:00;72118.09;;;-146.70;56.75
7474;BME280;3778;42.572;23.426;2022-07-23T01:37:27;72122.25;;;-146.70;56.73
7474;BME280;3778;42.572;23.426;2022-07-23T01:39:55;72126.38;;;-146.70;56.95
7474;BME280;3778;42.572;23.426;2022-07-23T01:42:21;72124.31;;;-146.70;57.15
7474;BME280;3778;42.572;23.426;2022-07-23T01:44:48;72132.59;;;-146.70;57.50
7474;BME280;3778;42.572;23.426;2022-07-23T01:47:16;72116.03;;;-146.70;55.48
7474;BME280;3778;42.572;23.426;2022-07-23T01:49:42;72109.81;;;-146.70;55.84
7474;BME280;3778;42.572;23.426;2022-07-23T01:52:09;72113.94;;;-146.70;55.22
7474;BME280;3778;42.572;23.426;2022-07-23T01:54:38;72116.03;;;-146.70;56.32
7474;BME280;3778;42.572;23.426;2022-07-23T01:57:07;72140.88;;;-146.70;57.16
7474;BME280;3778;42.572;23.426;2022-07-23T01:59:34;72142.97;;;-146.70;57.17
7474;BME280;3778;42.572;23.426;2022-07-23T02:02:02;72153.31;;;-146.70;57.45
7474;BME280;3778;42.572;23.426;2022-07-23T02:04:30;72153.31;;;-146.70;57.80
7474;BME280;3778;42.572;23.426;2022-07-23T02:07:00;72155.41;;;-146.70;58.01
7474;BME280;3778;42.572;23.426;2022-07-23T02:09:27;72161.63;;;-146.70;58.59
7474;BME280;3778;42.572;23.426;2022-07-23T02:11:54;72174.06;;;-146.70;58.96
7474;BME280;3778;42.572;23.426;2022-07-23T02:14:22;72188.56;;;-146.70;59.36
7474;BME280;3778;42.572;23.426;2022-07-23T02:16:49;72184.41;;;-146.70;59.33
7474;BME280;3778;42.572;23.426;2022-07-23T02:19:16;72188.56;;;-146.70;59.30
7474;BME280;3778;42.572;23.426;2022-07-23T02:21:42;72190.63;;;-146.70;59.09
7474;BME280;3778;42.572;23.426;2022-07-23T02:24:10;72182.34;;;-146.70;59.01
7474;BME280;3778;42.572;23.426;2022-07-23T02:26:37;72178.19;;;-146.70;58.82
7474;BME280;3778;42.572;23.426;2022-07-23T02:29:04;72182.34;;;-146.70;58.97
7474;BME280;3778;42.572;23.426;2022-07-23T02:31:32;72186.47;;;-146.70;59.26
7474;BME280;3778;42.572;23.426;2022-07-23T02:33:59;72196.84;;;-146.70;59.58
7474;BME280;3778;42.572;23.426;2022-07-23T02:36:26;72198.91;;;-146.70;59.79
7474;BME280;3778;42.572;23.426;2022-07-23T02:38:53;72211.34;;;-146.70;60.06
7474;BME280;3778;42.572;23.426;2022-07-23T02:41:20;72213.44;;;-146.70;60.09
7474;BME280;3778;42.572;23.426;2022-07-23T02:43:46;72209.28;;;-146.70;60.14
7474;BME280;3778;42.572;23.426;2022-07-23T02:46:13;72219.63;;;-146.70;60.21
7474;BME280;3778;42.572;23.426;2022-07-23T02:48:41;72227.94;;;-146.70;60.57
7474;BME280;3778;42.572;23.426;2022-07-23T02:51:08;72232.06;;;-146.70;60.81
7474;BME280;3778;42.572;23.426;2022-07-23T02:53:35;72234.16;;;-146.70;60.96
7474;BME280;3778;42.572;23.426;2022-07-23T02:56:02;72242.44;;;-146.70;61.15
7474;BME280;3778;42.572;23.426;2022-07-23T02:58:29;72248.66;;;-146.70;61.25
7474;BME280;3778;42.572;23.426;2022-07-23T03:00:56;72250.72;;;-146.70;61.29
7474;BME280;3778;42.572;23.426;2022-07-23T03:03:22;72244.50;;;-146.70;61.14
7474;BME280;3778;42.572;23.426;2022-07-23T03:05:50;72238.28;;;-146.70;60.65
7474;BME280;3778;42.572;23.426;2022-07-23T03:08:17;72248.66;;;-146.70;61.17
7474;BME280;3778;42.572;23.426;2022-07-23T03:10:44;72252.81;;;-146.70;61.27
7474;BME280;3778;42.572;23.426;2022-07-23T03:13:10;72246.59;;;-146.70;61.15
7474;BME280;3778;42.572;23.426;2022-07-23T03:15:37;72259.03;;;-146.70;61.42
7474;BME280;3778;42.572;23.426;2022-07-23T03:18:04;72250.72;;;-146.70;61.16
7474;BME280;3778;42.572;23.426;2022-07-23T03:20:31;72259.03;;;-146.70;61.32
7474;BME280;3778;42.572;23.426;2022-07-23T03:22:59;72252.81;;;-146.70;61.09
7474;BME280;3778;42.572;23.426;2022-07-23T03:25:26;72250.72;;;-146.70;61.28
7474;BME280;3778;42.572;23.426;2022-07-23T03:27:53;72248.66;;;-146.70;61.17
7474;BME280;3778;42.572;23.426;2022-07-23T03:30:19;72246.59;;;-146.70;61.57
7474;BME280;3778;42.572;23.426;2022-07-23T03:32:46;72248.66;;;-146.70;61.40
7474;BME280;3778;42.572;23.426;2022-07-23T03:35:13;72263.16;;;-146.70;61.74
7474;BME280;3778;42.572;23.426;2022-07-23T03:37:40;72254.88;;;-146.70;61.66
7474;BME280;3778;42.572;23.426;2022-07-23T03:40:09;72256.94;;;-146.70;61.56
7474;BME280;3778;42.572;23.426;2022-07-23T03:42:36;72250.72;;;-146.70;61.62
7474;BME280;3778;42.572;23.426;2022-07-23T03:45:05;72246.59;;;-146.70;61.57
7474;BME280;3778;42.572;23.426;2022-07-23T03:47:32;72248.66;;;-146.70;61.68
7474;BME280;3778;42.572;23.426;2022-07-23T03:49:59;72248.66;;;-146.70;62.04
7474;BME280;3778;42.572;23.426;2022-07-23T03:52:26;72254.88;;;-146.70;62.07
7474;BME280;3778;42.572;23.426;2022-07-23T03:54:52;72248.66;;;-146.70;62.12
7474;BME280;3778;42.572;23.426;2022-07-23T03:57:20;72252.81;;;-146.70;62.05
7474;BME280;3778;42.572;23.426;2022-07-23T03:59:47;72252.81;;;-146.70;61.86
7474;BME280;3778;42.572;23.426;2022-07-23T04:02:14;72248.66;;;-146.70;61.54
7474;BME280;3778;42.572;23.426;2022-07-23T04:04:40;72246.59;;;-146.70;61.48
7474;BME280;3778;42.572;23.426;2022-07-23T04:07:07;72240.38;;;-146.70;61.43
7474;BME280;3778;42.572;23.426;2022-07-23T04:09:34;72236.22;;;-146.70;61.31
7474;BME280;3778;42.572;23.426;2022-07-23T04:12:01;72236.22;;;-146.70;61.50
7474;BME280;3778;42.572;23.426;2022-07-23T04:14:29;72230.00;;;-146.70;61.49
7474;BME280;3778;42.572;23.426;2022-07-23T04:16:55;72225.84;;;-146.70;61.54
7474;BME280;3778;42.572;23.426;2022-07-23T04:19:22;72225.84;;;-146.70;61.63
7474;BME280;3778;42.572;23.426;2022-07-23T04:21:49;72217.56;;;-146.70;61.47
7474;BME280;3778;42.572;23.426;2022-07-23T04:24:16;72211.34;;;-146.70;61.11
7474;BME280;3778;42.572;23.426;2022-07-23T04:26:43;72205.13;;;-146.70;61.28
7474;BME280;3778;42.572;23.426;2022-07-23T04:29:09;72205.13;;;-146.70;61.35
7474;BME280;3778;42.572;23.426;2022-07-23T04:31:38;72196.84;;;-146.70;61.23
7474;BME280;3778;42.572;23.426;2022-07-23T04:34:04;72192.69;;;-146.70;61.09
7474;BME280;3778;42.572;23.426;2022-07-23T04:36:31;72196.84;;;-146.70;61.19
7474;BME280;3778;42.572;23.426;2022-07-23T04:38:58;72190.63;;;-146.70;61.12
7474;BME280;3778;42.572;23.426;2022-07-23T04:41:24;72178.19;;;-146.70;61.06
7474;BME280;3778;42.572;23.426;2022-07-23T04:43:51;72171.97;;;-146.70;60.58
7474;BME280;3778;42.572;23.426;2022-07-23T04:46:18;72161.63;;;-146.70;60.26
7474;BME280;3778;42.572;23.426;2022-07-23T04:48:46;72155.41;;;-146.70;60.42
7474;BME280;3778;42.572;23.426;2022-07-23T04:51:13;72145.03;;;-146.70;60.40
7474;BME280;3778;42.572;23.426;2022-07-23T04:53:39;72142.97;;;-146.70;60.09
7474;BME280;3778;42.572;23.426;2022-07-23T04:56:07;72134.69;;;-146.70;59.89
7474;BME280;3778;42.572;23.426;2022-07-23T04:58:33;72124.31;;;-146.70;59.74
7474;BME280;3778;42.572;23.426;2022-07-23T05:01:00;72111.88;;;-146.70;59.44
7474;BME280;3778;42.572;23.426;2022-07-23T05:03:27;72101.53;;;-146.70;59.31
7474;BME280;3778;42.572;23.426;2022-07-23T05:05:55;72097.38;;;-146.70;59.47
7474;BME280;3778;42.572;23.426;2022-07-23T05:08:22;72093.22;;;-146.70;59.44
7474;BME280;3778;42.572;23.426;2022-07-23T05:10:49;72082.88;;;-146.70;58.88
7474;BME280;3778;42.572;23.426;2022-07-23T05:13:16;72076.66;;;-146.70;58.73
7474;BME280;3778;42.572;23.426;2022-07-23T05:15:43;72064.22;;;-146.70;58.48
7474;BME280;3778;42.572;23.426;2022-07-23T05:18:10;72068.34;;;-146.70;58.45
7474;BME280;3778;42.572;23.426;2022-07-23T05:20:37;72060.06;;;-146.70;58.40
7474;BME280;3778;42.572;23.426;2022-07-23T05:23:06;72055.94;;;-146.70;58.58
7474;BME280;3778;42.572;23.426;2022-07-23T05:25:33;72045.56;;;-146.70;58.14
7474;BME280;3778;42.572;23.426;2022-07-23T05:28:00;72026.91;;;-146.70;57.67
7474;BME280;3778;42.572;23.426;2022-07-23T05:30:27;72010.34;;;-146.70;57.27
7474;BME280;3778;42.572;23.426;2022-07-23T05:32:53;72004.13;;;-146.70;57.23
7474;BME280;3778;42.572;23.426;2022-07-23T05:35:20;71999.97;;;-146.70;57.03
7474;BME280;3778;42.572;23.426;2022-07-23T05:37:47;71997.91;;;-146.70;56.98
7474;BME280;3778;42.572;23.426;2022-07-23T05:40:15;71989.63;;;-146.70;56.95
7474;BME280;3778;42.572;23.426;2022-07-23T05:42:42;71989.63;;;-146.70;56.85
7474;BME280;3778;42.572;23.426;2022-07-23T05:45:10;71968.88;;;-146.70;56.72
7474;BME280;3778;42.572;23.426;2022-07-23T05:47:41;71950.25;;;-146.70;56.37
7474;BME280;3778;42.572;23.426;2022-07-23T05:50:08;71944.03;;;-146.70;56.21
7474;BME280;3778;42.572;23.426;2022-07-23T05:52:35;71933.66;;;-146.70;56.04
7474;BME280;3778;42.572;23.426;2022-07-23T05:55:02;71919.16;;;-146.70;56.03
7474;BME280;3778;42.572;23.426;2022-07-23T05:57:31;71906.72;;;-146.70;55.69
7474;BME280;3778;42.572;23.426;2022-07-23T05:59:57;71900.50;;;-146.70;55.58
7474;BME280;3778;42.572;23.426;2022-07-23T06:02:25;71886.00;;;-146.70;55.55
7474;BME280;3778;42.572;23.426;2022-07-23T06:04:51;71873.56;;;-146.70;55.77
7474;BME280;3778;42.572;23.426;2022-07-23T06:07:18;71861.13;;;-146.70;55.16
7474;BME280;3778;42.572;23.426;2022-07-23T06:09:45;71844.56;;;-146.70;55.08
7474;BME280;3778;42.572;23.426;2022-07-23T06:12:12;71825.91;;;-146.70;55.07
7474;BME280;3778;42.572;23.426;2022-07-23T06:14:40;71809.34;;;-146.70;54.57
7474;BME280;3778;42.572;23.426;2022-07-23T06:17:07;71801.03;;;-146.70;54.40
7474;BME280;3778;42.572;23.426;2022-07-23T06:19:34;71784.47;;;-146.70;54.19
7474;BME280;3778;42.572;23.426;2022-07-23T06:22:01;71774.09;;;-146.70;54.01
7474;BME280;3778;42.572;23.426;2022-07-23T06:24:28;71765.81;;;-146.70;53.98
7474;BME280;3778;42.572;23.426;2022-07-23T06:26:54;71753.38;;;-146.70;53.80
7474;BME280;3778;42.572;23.426;2022-07-23T06:29:21;71734.72;;;-146.70;53.64
7474;BME280;3778;42.572;23.426;2022-07-23T06:31:49;71720.22;;;-146.70;53.24
7474;BME280;3778;42.572;23.426;2022-07-23T06:34:16;71714.00;;;-146.70;52.95
7474;BME280;3778;42.572;23.426;2022-07-23T06:36:43;71701.59;;;-146.70;52.95
7474;BME280;3778;42.572;23.426;2022-07-23T06:39:10;71691.22;;;-146.70;52.77
7474;BME280;3778;42.572;23.426;2022-07-23T06:41:38;71674.66;;;-146.70;52.42
7474;BME280;3778;42.572;23.426;2022-07-23T06:44:13;71668.44;;;-146.70;52.03
7474;BME280;3778;42.572;23.426;2022-07-23T06:46:41;71651.84;;;-146.70;52.32
7474;BME280;3778;42.572;23.426;2022-07-23T06:49:19;71639.41;;;-146.70;51.51
7474;BME280;3778;42.572;23.426;2022-07-23T06:51:46;71633.19;;;-146.70;50.89
7474;BME280;3778;42.572;23.426;2022-07-23T06:54:15;71624.91;;;-146.70;50.83
7474;BME280;3778;42.572;23.426;2022-07-23T06:56:42;71608.34;;;-146.70;49.97
7474;BME280;3778;42.572;23.426;2022-07-23T06:59:09;71589.69;;;-146.70;49.44
7474;BME280;3778;42.572;23.426;2022-07-23T07:01:36;71575.19;;;-146.70;49.30
7474;BME280;3778;42.572;23.426;2022-07-23T07:04:03;71554.47;;;-146.70;49.86
7474;BME280;3778;42.572;23.426;2022-07-23T07:06:31;71544.09;;;-146.70;49.22
7474;BME280;3778;42.572;23.426;2022-07-23T07:08:58;71533.75;;;-146.70;49.07
7474;BME280;3778;42.572;23.426;2022-07-23T07:11:25;71517.16;;;-146.70;47.94
7474;BME280;3778;42.572;23.426;2022-07-23T07:13:51;71502.66;;;-146.70;47.83
7474;BME280;3778;42.572;23.426;2022-07-23T07:16:18;71488.16;;;-146.70;46.90
7474;BME280;3778;42.572;23.426;2022-07-23T07:18:45;71475.72;;;-146.70;46.17
7474;BME280;3778;42.572;23.426;2022-07-23T07:21:12;71455.00;;;-146.70;45.64
7474;BME280;3778;42.572;23.426;2022-07-23T07:23:40;71438.44;;;-146.70;44.12
7474;BME280;3778;42.572;23.426;2022-07-23T07:26:07;71423.94;;;-146.70;42.74
7474;BME280;3778;42.572;23.426;2022-07-23T07:28:33;71397.00;;;-146.70;44.80
7474;BME280;3778;42.572;23.426;2022-07-23T07:31:00;71372.13;;;-146.70;45.22
7474;BME280;3778;42.572;23.426;2022-07-23T07:33:27;71353.47;;;-146.70;45.56
7474;BME280;3778;42.572;23.426;2022-07-23T07:35:54;71326.53;;;-146.70;44.57
7474;BME280;3778;42.572;23.426;2022-07-23T07:38:20;71301.69;;;-146.70;44.90
7474;BME280;3778;42.572;23.426;2022-07-23T07:40:49;71283.03;;;-146.70;45.84
7474;BME280;3778;42.572;23.426;2022-07-23T07:43:15;71266.47;;;-146.70;44.21
7474;BME280;3778;42.572;23.426;2022-07-23T07:45:42;71258.16;;;-146.70;43.50
7474;BME280;3778;42.572;23.426;2022-07-23T07:48:09;71268.53;;;-146.70;42.44
7474;BME280;3778;42.572;23.426;2022-07-23T07:50:35;71245.75;;;-146.70;40.86
7474;BME280;3778;42.572;23.426;2022-07-23T07:53:02;71227.09;;;-146.70;41.67
7474;BME280;3778;42.572;23.426;2022-07-23T07:55:29;71218.81;;;-146.70;40.68
7474;BME280;3778;42.572;23.426;2022-07-23T07:57:58;71210.53;;;-146.70;40.50
7474;BME280;3778;42.572;23.426;2022-07-23T08:00:25;71171.16;;;-146.70;36.40
7474;BME280;3778;42.572;23.426;2022-07-23T08:02:53;71164.94;;;-146.70;36.69
7474;BME280;3778;42.572;23.426;2022-07-23T08:05:21;71167.00;;;-146.70;37.60
7474;BME280;3778;42.572;23.426;2022-07-23T08:07:48;71158.72;;;-146.70;37.04
7474;BME280;3778;42.572;23.426;2022-07-23T08:10:15;71146.28;;;-146.70;37.22
7474;BME280;3778;42.572;23.426;2022-07-23T08:12:44;71140.06;;;-146.70;37.74
7474;BME280;3778;42.572;23.426;2022-07-23T08:15:13;71127.66;;;-146.70;38.25
7474;BME280;3778;42.572;23.426;2022-07-23T08:17:41;71121.44;;;-146.70;39.89
7474;BME280;3778;42.572;23.426;2022-07-23T08:20:09;71106.94;;;-146.70;38.28
7474;BME280;3778;42.572;23.426;2022-07-23T08:22:47;71090.34;;;-146.70;37.05
7474;BME280;3778;42.572;23.426;2022-07-23T08:25:14;71073.78;;;-146.70;37.54
7474;BME280;3778;42.572;23.426;2022-07-23T08:27:41;71075.84;;;-146.70;37.45
7474;BME280;3778;42.572;23.426;2022-07-23T08:30:09;71061.34;;;-146.70;36.39
7474;BME280;3778;42.572;23.426;2022-07-23T08:33:03;71046.84;;;-146.70;36.71
7474;BME280;3778;42.572;23.426;2022-07-23T08:35:31;71036.50;;;-146.70;36.60
7474;BME280;3778;42.572;23.426;2022-07-23T08:37:59;71028.19;;;-146.70;36.41
7474;BME280;3778;42.572;23.426;2022-07-23T08:40:27;71019.91;;;-146.70;36.33
7474;BME280;3778;42.572;23.426;2022-07-23T08:42:54;70990.91;;;-146.70;36.88
7474;BME280;3778;42.572;23.426;2022-07-23T08:45:23;70978.47;;;-146.70;35.88
7474;BME280;3778;42.572;23.426;2022-07-23T08:47:54;70966.06;;;-146.70;35.47
7474;BME280;3778;42.572;23.426;2022-07-23T08:50:22;70968.13;;;-146.70;35.63
7474;BME280;3778;42.572;23.426;2022-07-23T08:52:50;70968.13;;;-146.70;35.56
7474;BME280;3778;42.572;23.426;2022-07-23T08:55:18;70949.47;;;-146.70;35.90
7474;BME280;3778;42.572;23.426;2022-07-23T08:57:47;70932.91;;;-146.70;34.77
7474;BME280;3778;42.572;23.426;2022-07-23T09:00:15;70924.63;;;-146.70;34.63
7474;BME280;3778;42.572;23.426;2022-07-23T09:02:43;70891.47;;;-146.70;35.92
7474;BME280;3778;42.572;23.426;2022-07-23T09:05:13;70897.69;;;-146.70;34.33
7474;BME280;3778;42.572;23.426;2022-07-23T09:08:08;70881.09;;;-146.70;34.16
7474;BME280;3778;42.572;23.426;2022-07-23T09:10:43;70856.25;;;-146.70;33.57
7474;BME280;3778;42.572;23.426;2022-07-23T09:13:27;70874.91;;;-146.70;34.42
7474;BME280;3778;42.572;23.426;2022-07-23T09:15:57;70850.03;;;-146.70;34.12
7474;BME280;3778;42.572;23.426;2022-07-23T09:18:32;70845.88;;;-146.70;32.76
7474;BME280;3778;42.572;23.426;2022-07-23T09:21:08;70827.25;;;-146.70;32.15
7474;BME280;3778;42.572;23.426;2022-07-23T09:23:40;70833.47;;;-146.70;31.97
7474;BME280;3778;42.572;23.426;2022-07-23T09:26:21;70818.97;;;-146.70;31.77
7474;BME280;3778;42.572;23.426;2022-07-23T09:28:55;70808.59;;;-146.70;33.26
7474;BME280;3778;42.572;23.426;2022-07-23T09:31:24;70783.75;;;-146.70;32.60
7474;BME280;3778;42.572;23.426;2022-07-23T09:33:51;70787.88;;;-146.70;31.98
7474;BME280;3778;42.572;23.426;2022-07-23T09:36:29;70783.75;;;-146.70;31.42
7474;BME280;3778;42.572;23.426;2022-07-23T09:38:56;70777.53;;;-146.70;32.81
7474;BME280;3778;42.572;23.426;2022-07-23T09:41:23;70758.88;;;-146.70;32.04
7474;BME280;3778;42.572;23.426;2022-07-23T09:43:55;70771.31;;;-146.70;31.35
7474;BME280;3778;42.572;23.426;2022-07-23T09:46:24;70773.38;;;-146.70;31.16
7474;BME280;3778;42.572;23.426;2022-07-23T09:48:51;70758.88;;;-146.70;30.56
7474;BME280;3778;42.572;23.426;2022-07-23T09:51:19;70736.09;;;-146.70;32.22
7474;BME280;3778;42.572;23.426;2022-07-23T09:53:54;70711.22;;;-146.70;30.26
7474;BME280;3778;42.572;23.426;2022-07-23T09:56:21;70709.16;;;-146.70;29.62
7474;BME280;3778;42.572;23.426;2022-07-23T09:58:50;70705.03;;;-146.70;28.93
7474;BME280;3778;42.572;23.426;2022-07-23T10:01:17;70694.66;;;-146.70;29.77
7474;BME280;3778;42.572;23.426;2022-07-23T10:03:46;70680.16;;;-146.70;29.66
7474;BME280;3778;42.572;23.426;2022-07-23T10:06:13;70723.66;;;-146.70;29.99
7474;BME280;3778;42.572;23.426;2022-07-23T10:08:41;70711.22;;;-146.70;31.51
7474;BME280;3778;42.572;23.426;2022-07-23T10:11:09;70673.94;;;-146.70;30.65
7474;BME280;3778;42.572;23.426;2022-07-23T10:13:37;70647.00;;;-146.70;29.40
7474;BME280;3778;42.572;23.426;2022-07-23T10:16:19;70626.31;;;-146.70;31.47
7474;BME280;3778;42.572;23.426;2022-07-23T10:18:47;70603.50;;;-146.70;28.21
7474;BME280;3778;42.572;23.426;2022-07-23T10:21:18;70611.81;;;-146.70;29.86
7474;BME280;3778;42.572;23.426;2022-07-23T10:23:58;70595.22;;;-146.70;29.35
7474;BME280;3778;42.572;23.426;2022-07-23T10:26:34;70589.00;;;-146.70;28.21
7474;BME280;3778;42.572;23.426;2022-07-23T10:29:11;70601.44;;;-146.70;28.24
7474;BME280;3778;42.572;23.426;2022-07-23T10:31:50;70626.31;;;-146.70;30.67
7474;BME280;3778;42.572;23.426;2022-07-23T10:34:24;70572.44;;;-146.70;27.78
7474;BME280;3778;42.572;23.426;2022-07-23T10:36:56;70572.44;;;-146.70;27.57
7474;BME280;3778;42.572;23.426;2022-07-23T10:39:27;70553.78;;;-146.70;27.38
7474;BME280;3778;42.572;23.426;2022-07-23T10:42:09;70549.66;;;-146.70;27.25
7474;BME280;3778;42.572;23.426;2022-07-23T10:44:41;70518.59;;;-146.70;27.69
7474;BME280;3778;42.572;23.426;2022-07-23T10:47:10;70508.22;;;-146.70;28.24
7474;BME280;3778;42.572;23.426;2022-07-23T10:49:46;70477.16;;;-146.70;28.33
7474;BME280;3778;42.572;23.426;2022-07-23T10:52:23;70456.44;;;-146.70;27.91
7474;BME280;3778;42.572;23.426;2022-07-23T10:54:53;70444.00;;;-146.70;28.41
7474;BME280;3778;42.572;23.426;2022-07-23T10:57:24;70435.72;;;-146.70;26.31
7474;BME280;3778;42.572;23.426;2022-07-23T11:00:25;70429.50;;;-146.70;27.00
7474;BME280;3778;42.572;23.426;2022-07-23T11:02:53;70425.38;;;-146.70;26.74
7474;BME280;3778;42.572;23.426;2022-07-23T11:05:24;70435.72;;;-146.70;26.79
7474;BME280;3778;42.572;23.426;2022-07-23T11:08:18;70429.50;;;-146.70;25.47
7474;BME280;3778;42.572;23.426;2022-07-23T11:10:48;70450.22;;;-146.70;24.02
7474;BME280;3778;42.572;23.426;2022-07-23T11:13:35;70419.16;;;-146.70;26.39
7474;BME280;3778;42.572;23.426;2022-07-23T11:16:23;70396.38;;;-146.70;24.90
7474;BME280;3778;42.572;23.426;2022-07-23T11:19:11;70357.00;;;-146.70;26.31
7474;BME280;3778;42.572;23.426;2022-07-23T11:21:48;70354.94;;;-146.70;23.43
7474;BME280;3778;42.572;23.426;2022-07-23T11:24:21;70348.72;;;-146.70;24.68
7474;BME280;3778;42.572;23.426;2022-07-23T11:27:02;70383.94;;;-146.70;23.24
7474;BME280;3778;42.572;23.426;2022-07-23T11:29:46;70415.00;;;-146.70;23.84
7474;BME280;3778;42.572;23.426;2022-07-23T11:32:29;70373.59;;;-146.70;25.88
7474;BME280;3778;42.572;23.426;2022-07-23T11:34:58;70357.00;;;-146.70;24.78
7474;BME280;3778;42.572;23.426;2022-07-23T11:37:33;70330.06;;;-146.70;23.78
7474;BME280;3778;42.572;23.426;2022-07-23T11:40:02;70309.38;;;-146.70;25.72
7474;BME280;3778;42.572;23.426;2022-07-23T11:42:30;70280.38;;;-146.70;25.25
7474;BME280;3778;42.572;23.426;2022-07-23T11:44:58;70278.28;;;-146.70;24.26
7474;BME280;3778;42.572;23.426;2022-07-23T11:47:26;70301.06;;;-146.70;23.96
7474;BME280;3778;42.572;23.426;2022-07-23T11:49:54;70288.66;;;-146.70;23.45
7474;BME280;3778;42.572;23.426;2022-07-23T11:52:22;70278.28;;;-146.70;24.07
7474;BME280;3778;42.572;23.426;2022-07-23T11:54:50;70270.00;;;-146.70;24.23
7474;BME280;3778;42.572;23.426;2022-07-23T11:57:18;70280.38;;;-146.70;23.49
7474;BME280;3778;42.572;23.426;2022-07-23T11:59:47;70263.78;;;-146.70;23.17
7474;BME280;3778;42.572;23.426;2022-07-23T12:02:19;70276.22;;;-146.70;24.14
7474;BME280;3778;42.572;23.426;2022-07-23T12:04:48;70259.66;;;-146.70;24.22
7474;BME280;3778;42.572;23.426;2022-07-23T12:07:31;70236.88;;;-146.70;22.97
7474;BME280;3778;42.572;23.426;2022-07-23T12:09:58;70245.16;;;-146.70;21.80
7474;BME280;3778;42.572;23.426;2022-07-23T12:12:26;70234.78;;;-146.70;22.16
7474;BME280;3778;42.572;23.426;2022-07-23T12:14:56;70207.88;;;-146.70;23.53
7474;BME280;3778;42.572;23.426;2022-07-23T12:17:29;70191.28;;;-146.70;22.54
7474;BME280;3778;42.572;23.426;2022-07-23T12:19:57;70187.16;;;-146.70;21.99
7474;BME280;3778;42.572;23.426;2022-07-23T12:22:26;70212.00;;;-146.70;22.24
7474;BME280;3778;42.572;23.426;2022-07-23T12:25:00;70195.44;;;-146.70;22.57
7474;BME280;3778;42.572;23.426;2022-07-23T12:27:28;70209.94;;;-146.70;22.78
7474;BME280;3778;42.572;23.426;2022-07-23T12:29:54;70187.16;;;-146.70;21.98
7474;BME280;3778;42.572;23.426;2022-07-23T12:32:23;70187.16;;;-146.70;21.03
7474;BME280;3778;42.572;23.426;2022-07-23T12:35:03;70170.59;;;-146.70;21.73
7474;BME280;3778;42.572;23.426;2022-07-23T12:37:32;70168.50;;;-146.70;22.32
7474;BME280;3778;42.572;23.426;2022-07-23T12:40:19;70170.59;;;-146.70;22.99
7474;BME280;3778;42.572;23.426;2022-07-23T12:42:47;70162.31;;;-146.70;22.08
7474;BME280;3778;42.572;23.426;2022-07-23T12:45:14;70120.88;;;-146.70;22.38
7474;BME280;3778;42.572;23.426;2022-07-23T12:48:08;70087.72;;;-146.70;22.09
7474;BME280;3778;42.572;23.426;2022-07-23T12:50:42;70075.31;;;-146.70;20.38
7474;BME280;3778;42.572;23.426;2022-07-23T12:53:12;70054.59;;;-146.70;20.96
7474;BME280;3778;42.572;23.426;2022-07-23T12:55:41;70056.66;;;-146.70;21.51
7474;BME280;3778;42.572;23.426;2022-07-23T12:58:10;70077.38;;;-146.70;21.00
7474;BME280;3778;42.572;23.426;2022-07-23T13:00:59;70073.22;;;-146.70;21.01